sensor_id;sensor_type;location;lat;lon;timestamp;temperature;humidity
54680;DHT22;40578;53.178;5.846;2022-07-11T00:01:42;15.70;99.90
54680;DHT22;40578;53.178;5.846;2022-07-11T00:04:08;15.70;99.90
54680;DHT22;40578;53.178;5.846;2022-07-11T00:06:33;15.50;99.90
54680;DHT22;40578;53.178;5.846;2022-07-11T00:08:59;15.60;99.90
54680;DHT22;40578;53.178;5.846;2022-07-11T00:11:24;15.60;99.90
54680;DHT22;40578;53.178;5.846;2022-07-11T00:13:50;15.60;99.90
54680;DHT22;40578;53.178;5.846;2022-07-11T00:16:15;15.60;99.90
54680;DHT22;40578;53.178;5.846;2022-07-11T00:18:41;15.60;99.90
54680;DHT22;40578;53.178;5.846;2022-07-11T00:21:06;15.50;99.90
54680;DHT22;40578;53.178;5.846;2022-07-11T00:23:32;15.50;99.90
54680;DHT22;40578;53.178;5.846;2022-07-11T00:25:57;15.50;99.90
54680;DHT22;40578;53.178;5.846;2022-07-11T00:28:23;15.40;99.90
54680;DHT22;40578;53.178;5.846;2022-07-11T00:30:48;15.50;99.90
54680;DHT22;40578;53.178;5.846;2022-07-11T00:33:14;15.50;99.90
54680;DHT22;40578;53.178;5.846;2022-07-11T00:35:39;15.60;99.90
54680;DHT22;40578;53.178;5.846;2022-07-11T00:38:05;15.40;99.90
54680;DHT22;40578;53.178;5.846;2022-07-11T00:40:30;15.60;99.90
54680;DHT22;40578;53.178;5.846;2022-07-11T00:42:56;15.60;99.90
54680;DHT22;40578;53.178;5.846;2022-07-11T00:45:21;15.60;99.90
54680;DHT22;40578;53.178;5.846;2022-07-11T00:47:47;15.50;99.90
54680;DHT22;40578;53.178;5.846;2022-07-11T00:50:13;15.50;99.90
54680;DHT22;40578;53.178;5.846;2022-07-11T00:52:38;15.50;99.90
54680;DHT22;40578;53.178;5.846;2022-07-11T00:55:05;15.60;99.90
54680;DHT22;40578;53.178;5.846;2022-07-11T00:57:32;15.70;99.90
54680;DHT22;40578;53.178;5.846;2022-07-11T00:59:57;15.60;99.90
54680;DHT22;40578;53.178;5.846;2022-07-11T01:02:23;15.50;99.90
54680;DHT22;40578;53.178;5.846;2022-07-11T01:04:49;15.40;99.90
54680;DHT22;40578;53.178;5.846;2022-07-11T01:07:15;15.40;99.90
54680;DHT22;40578;53.178;5.846;2022-07-11T01:09:40;15.50;99.90
54680;DHT22;40578;53.178;5.846;2022-07-11T01:12:06;15.40;99.90
54680;DHT22;40578;53.178;5.846;2022-07-11T01:14:31;15.40;99.90
54680;DHT22;40578;53.178;5.846;2022-07-11T01:16:57;15.40;99.90
54680;DHT22;40578;53.178;5.846;2022-07-11T01:19:22;15.50;99.90
54680;DHT22;40578;53.178;5.846;2022-07-11T01:21:49;15.40;99.90
54680;DHT22;40578;53.178;5.846;2022-07-11T01:24:15;15.50;99.90
54680;DHT22;40578;53.178;5.846;2022-07-11T01:26:40;15.50;99.90
54680;DHT22;40578;53.178;5.846;2022-07-11T01:29:08;15.50;99.90
54680;DHT22;40578;53.178;5.846;2022-07-11T01:31:35;15.40;99.90
54680;DHT22;40578;53.178;5.846;2022-07-11T01:34:02;15.40;99.90
54680;DHT22;40578;53.178;5.846;2022-07-11T01:36:28;15.30;99.90
54680;DHT22;40578;53.178;5.846;2022-07-11T01:38:53;15.50;99.90
54680;DHT22;40578;53.178;5.846;2022-07-11T01:41:19;15.30;99.90
54680;DHT22;40578;53.178;5.846;2022-07-11T01:43:44;15.40;99.90
54680;DHT22;40578;53.178;5.846;2022-07-11T01:46:10;15.20;99.90
54680;DHT22;40578;53.178;5.846;2022-07-11T01:48:35;15.30;99.90
54680;DHT22;40578;53.178;5.846;2022-07-11T01:51:01;15.30;99.90
54680;DHT22;40578;53.178;5.846;2022-07-11T01:53:26;15.10;99.90
54680;DHT22;40578;53.178;5.846;2022-07-11T01:55:52;15.20;99.90
54680;DHT22;40578;53.178;5.846;2022-07-11T01:58:17;15.30;99.90
54680;DHT22;40578;53.178;5.846;2022-07-11T02:00:43;15.30;99.90
54680;DHT22;40578;53.178;5.846;2022-07-11T02:03:09;15.10;99.90
54680;DHT22;40578;53.178;5.846;2022-07-11T02:05:34;15.20;99.90
54680;DHT22;40578;53.178;5.846;2022-07-11T02:08:00;15.30;99.90
54680;DHT22;40578;53.178;5.846;2022-07-11T02:10:38;15.50;99.90
54680;DHT22;40578;53.178;5.846;2022-07-11T02:13:04;15.30;99.90
54680;DHT22;40578;53.178;5.846;2022-07-11T02:15:30;15.10;99.90
54680;DHT22;40578;53.178;5.846;2022-07-11T02:17:56;15.40;99.90
54680;DHT22;40578;53.178;5.846;2022-07-11T02:20:21;15.50;99.90
54680;DHT22;40578;53.178;5.846;2022-07-11T02:22:47;15.40;99.90
54680;DHT22;40578;53.178;5.846;2022-07-11T02:25:13;15.10;99.90
54680;DHT22;40578;53.178;5.846;2022-07-11T02:27:39;15.30;99.90
54680;DHT22;40578;53.178;5.846;2022-07-11T02:30:05;15.50;99.90
54680;DHT22;40578;53.178;5.846;2022-07-11T02:32:30;15.30;99.90
54680;DHT22;40578;53.178;5.846;2022-07-11T02:34:56;15.20;99.90
54680;DHT22;40578;53.178;5.846;2022-07-11T02:37:21;15.30;99.90
54680;DHT22;40578;53.178;5.846;2022-07-11T02:39:47;15.50;99.90
54680;DHT22;40578;53.178;5.846;2022-07-11T02:42:12;15.20;99.90
54680;DHT22;40578;53.178;5.846;2022-07-11T02:44:38;15.20;99.90
54680;DHT22;40578;53.178;5.846;2022-07-11T02:47:03;15.10;99.90
54680;DHT22;40578;53.178;5.846;2022-07-11T02:49:29;15.30;99.90
54680;DHT22;40578;53.178;5.846;2022-07-11T02:51:56;15.20;99.90
54680;DHT22;40578;53.178;5.846;2022-07-11T02:54:21;15.20;99.90
54680;DHT22;40578;53.178;5.846;2022-07-11T02:56:47;15.10;99.90
54680;DHT22;40578;53.178;5.846;2022-07-11T02:59:12;15.10;99.90
54680;DHT22;40578;53.178;5.846;2022-07-11T03:01:38;15.10;99.90
54680;DHT22;40578;53.178;5.846;2022-07-11T03:04:05;15.30;99.90
54680;DHT22;40578;53.178;5.846;2022-07-11T03:06:31;15.20;99.90
54680;DHT22;40578;53.178;5.846;2022-07-11T03:08:56;15.10;99.90
54680;DHT22;40578;53.178;5.846;2022-07-11T03:11:22;15.30;99.90
54680;DHT22;40578;53.178;5.846;2022-07-11T03:13:47;15.10;99.90
54680;DHT22;40578;53.178;5.846;2022-07-11T03:16:13;15.10;99.90
54680;DHT22;40578;53.178;5.846;2022-07-11T03:18:38;15.20;99.90
54680;DHT22;40578;53.178;5.846;2022-07-11T03:21:04;15.10;99.90
54680;DHT22;40578;53.178;5.846;2022-07-11T03:23:30;15.20;99.90
54680;DHT22;40578;53.178;5.846;2022-07-11T03:25:55;15.10;99.90
54680;DHT22;40578;53.178;5.846;2022-07-11T03:28:20;15.30;99.90
54680;DHT22;40578;53.178;5.846;2022-07-11T03:30:46;14.90;99.90
54680;DHT22;40578;53.178;5.846;2022-07-11T03:33:11;15.20;99.90
54680;DHT22;40578;53.178;5.846;2022-07-11T03:35:37;15.10;99.90
54680;DHT22;40578;53.178;5.846;2022-07-11T03:38:06;15.20;99.90
54680;DHT22;40578;53.178;5.846;2022-07-11T03:40:31;15.00;99.90
54680;DHT22;40578;53.178;5.846;2022-07-11T03:42:57;15.30;99.90
54680;DHT22;40578;53.178;5.846;2022-07-11T03:45:22;15.00;99.90
54680;DHT22;40578;53.178;5.846;2022-07-11T03:47:48;15.10;99.90
54680;DHT22;40578;53.178;5.846;2022-07-11T03:50:14;15.00;99.90
54680;DHT22;40578;53.178;5.846;2022-07-11T03:52:39;15.00;99.90
54680;DHT22;40578;53.178;5.846;2022-07-11T03:55:05;15.00;99.90
54680;DHT22;40578;53.178;5.846;2022-07-11T03:57:30;15.10;99.90
54680;DHT22;40578;53.178;5.846;2022-07-11T03:59:56;15.00;99.90
54680;DHT22;40578;53.178;5.846;2022-07-11T04:02:21;15.00;99.90
54680;DHT22;40578;53.178;5.846;2022-07-11T04:04:47;14.90;99.90
54680;DHT22;40578;53.178;5.846;2022-07-11T04:07:13;14.90;99.90
54680;DHT22;40578;53.178;5.846;2022-07-11T04:09:38;15.10;99.90
54680;DHT22;40578;53.178;5.846;2022-07-11T04:12:04;15.20;99.90
54680;DHT22;40578;53.178;5.846;2022-07-11T04:14:29;15.20;99.90
54680;DHT22;40578;53.178;5.846;2022-07-11T04:16:55;15.20;99.90
54680;DHT22;40578;53.178;5.846;2022-07-11T04:19:20;15.10;99.90
54680;DHT22;40578;53.178;5.846;2022-07-11T04:21:46;15.10;99.90
54680;DHT22;40578;53.178;5.846;2022-07-11T04:24:11;15.00;99.90
54680;DHT22;40578;53.178;5.846;2022-07-11T04:26:37;15.20;99.90
54680;DHT22;40578;53.178;5.846;2022-07-11T04:29:02;15.20;99.90
54680;DHT22;40578;53.178;5.846;2022-07-11T04:31:28;15.10;99.90
54680;DHT22;40578;53.178;5.846;2022-07-11T04:33:53;15.10;99.90
54680;DHT22;40578;53.178;5.846;2022-07-11T04:36:18;15.10;99.90
54680;DHT22;40578;53.178;5.846;2022-07-11T04:38:44;15.20;99.90
54680;DHT22;40578;53.178;5.846;2022-07-11T04:41:10;15.20;99.90
54680;DHT22;40578;53.178;5.846;2022-07-11T04:43:35;15.20;99.90
54680;DHT22;40578;53.178;5.846;2022-07-11T04:46:02;15.00;99.90
54680;DHT22;40578;53.178;5.846;2022-07-11T04:48:29;15.00;99.90
54680;DHT22;40578;53.178;5.846;2022-07-11T04:50:54;15.20;99.90
54680;DHT22;40578;53.178;5.846;2022-07-11T04:53:19;15.10;99.90
54680;DHT22;40578;53.178;5.846;2022-07-11T04:55:45;15.10;99.90
54680;DHT22;40578;53.178;5.846;2022-07-11T04:58:10;15.10;99.90
54680;DHT22;40578;53.178;5.846;2022-07-11T05:00:36;15.00;99.90
54680;DHT22;40578;53.178;5.846;2022-07-11T05:03:02;15.10;99.90
54680;DHT22;40578;53.178;5.846;2022-07-11T05:05:28;15.40;99.90
54680;DHT22;40578;53.178;5.846;2022-07-11T05:07:53;15.30;99.90
54680;DHT22;40578;53.178;5.846;2022-07-11T05:10:19;15.30;99.90
54680;DHT22;40578;53.178;5.846;2022-07-11T05:12:45;15.20;99.90
54680;DHT22;40578;53.178;5.846;2022-07-11T05:15:10;15.30;99.90
54680;DHT22;40578;53.178;5.846;2022-07-11T05:17:36;15.40;99.90
54680;DHT22;40578;53.178;5.846;2022-07-11T05:20:02;15.60;99.90
54680;DHT22;40578;53.178;5.846;2022-07-11T05:22:27;15.30;99.90
54680;DHT22;40578;53.178;5.846;2022-07-11T05:24:53;15.30;99.90
54680;DHT22;40578;53.178;5.846;2022-07-11T05:27:18;15.30;99.90
54680;DHT22;40578;53.178;5.846;2022-07-11T05:29:44;15.60;99.90
54680;DHT22;40578;53.178;5.846;2022-07-11T05:32:09;15.40;99.90
54680;DHT22;40578;53.178;5.846;2022-07-11T05:34:35;15.40;99.90
54680;DHT22;40578;53.178;5.846;2022-07-11T05:37:01;15.20;99.90
54680;DHT22;40578;53.178;5.846;2022-07-11T05:39:27;15.20;99.90
54680;DHT22;40578;53.178;5.846;2022-07-11T05:41:52;15.50;99.90
54680;DHT22;40578;53.178;5.846;2022-07-11T05:44:18;15.40;99.90
54680;DHT22;40578;53.178;5.846;2022-07-11T05:46:44;15.40;99.90
54680;DHT22;40578;53.178;5.846;2022-07-11T05:49:10;15.40;99.90
54680;DHT22;40578;53.178;5.846;2022-07-11T05:51:35;15.40;99.90
54680;DHT22;40578;53.178;5.846;2022-07-11T05:54:02;15.40;99.90
54680;DHT22;40578;53.178;5.846;2022-07-11T05:56:27;15.50;99.90
54680;DHT22;40578;53.178;5.846;2022-07-11T05:58:53;15.30;99.90
54680;DHT22;40578;53.178;5.846;2022-07-11T06:01:20;15.30;99.90
54680;DHT22;40578;53.178;5.846;2022-07-11T06:03:46;15.30;99.90
54680;DHT22;40578;53.178;5.846;2022-07-11T06:06:11;15.20;99.90
54680;DHT22;40578;53.178;5.846;2022-07-11T06:08:37;15.40;99.90
54680;DHT22;40578;53.178;5.846;2022-07-11T06:11:05;15.40;99.90
54680;DHT22;40578;53.178;5.846;2022-07-11T06:13:31;15.50;99.90
54680;DHT22;40578;53.178;5.846;2022-07-11T06:15:57;15.40;99.90
54680;DHT22;40578;53.178;5.846;2022-07-11T06:18:22;15.50;99.90
54680;DHT22;40578;53.178;5.846;2022-07-11T06:20:48;15.60;99.90
54680;DHT22;40578;53.178;5.846;2022-07-11T06:23:14;15.60;99.90
54680;DHT22;40578;53.178;5.846;2022-07-11T06:25:40;15.70;99.90
54680;DHT22;40578;53.178;5.846;2022-07-11T06:28:05;15.70;99.90
54680;DHT22;40578;53.178;5.846;2022-07-11T06:30:32;15.70;99.90
54680;DHT22;40578;53.178;5.846;2022-07-11T06:32:57;15.70;99.90
54680;DHT22;40578;53.178;5.846;2022-07-11T06:35:23;15.80;99.90
54680;DHT22;40578;53.178;5.846;2022-07-11T06:37:49;15.70;99.90
54680;DHT22;40578;53.178;5.846;2022-07-11T06:40:14;15.80;99.90
54680;DHT22;40578;53.178;5.846;2022-07-11T06:42:45;15.80;99.90
54680;DHT22;40578;53.178;5.846;2022-07-11T06:45:11;15.90;99.90
54680;DHT22;40578;53.178;5.846;2022-07-11T06:47:36;16.00;99.90
54680;DHT22;40578;53.178;5.846;2022-07-11T06:50:02;16.10;99.90
54680;DHT22;40578;53.178;5.846;2022-07-11T06:52:28;16.20;99.90
54680;DHT22;40578;53.178;5.846;2022-07-11T06:54:53;16.30;99.90
54680;DHT22;40578;53.178;5.846;2022-07-11T06:57:19;16.40;99.90
54680;DHT22;40578;53.178;5.846;2022-07-11T06:59:44;16.40;99.90
54680;DHT22;40578;53.178;5.846;2022-07-11T07:02:09;16.40;99.90
54680;DHT22;40578;53.178;5.846;2022-07-11T07:04:35;16.30;99.90
54680;DHT22;40578;53.178;5.846;2022-07-11T07:07:01;16.40;99.90
54680;DHT22;40578;53.178;5.846;2022-07-11T07:09:27;16.40;99.90
54680;DHT22;40578;53.178;5.846;2022-07-11T07:11:53;16.30;99.90
54680;DHT22;40578;53.178;5.846;2022-07-11T07:14:20;16.30;99.90
54680;DHT22;40578;53.178;5.846;2022-07-11T07:33:41;16.60;99.90
54680;DHT22;40578;53.178;5.846;2022-07-11T07:36:07;16.90;99.90
54680;DHT22;40578;53.178;5.846;2022-07-11T07:38:33;16.90;99.90
54680;DHT22;40578;53.178;5.846;2022-07-11T07:40:58;16.80;99.90
54680;DHT22;40578;53.178;5.846;2022-07-11T07:43:24;16.70;99.90
54680;DHT22;40578;53.178;5.846;2022-07-11T07:45:50;16.70;99.90
54680;DHT22;40578;53.178;5.846;2022-07-11T07:48:15;16.60;99.90
54680;DHT22;40578;53.178;5.846;2022-07-11T07:50:41;16.90;99.90
54680;DHT22;40578;53.178;5.846;2022-07-11T07:53:08;16.90;99.90
54680;DHT22;40578;53.178;5.846;2022-07-11T07:55:33;17.00;99.90
54680;DHT22;40578;53.178;5.846;2022-07-11T07:57:59;17.00;99.90
54680;DHT22;40578;53.178;5.846;2022-07-11T08:00:24;17.10;99.90
54680;DHT22;40578;53.178;5.846;2022-07-11T08:03:09;17.10;99.90
54680;DHT22;40578;53.178;5.846;2022-07-11T08:05:35;17.10;99.90
54680;DHT22;40578;53.178;5.846;2022-07-11T08:08:00;17.10;99.90
54680;DHT22;40578;53.178;5.846;2022-07-11T08:10:26;17.20;99.90
54680;DHT22;40578;53.178;5.846;2022-07-11T08:12:52;17.20;99.90
54680;DHT22;40578;53.178;5.846;2022-07-11T08:15:17;17.20;99.90
54680;DHT22;40578;53.178;5.846;2022-07-11T08:17:43;17.10;99.90
54680;DHT22;40578;53.178;5.846;2022-07-11T08:20:09;17.10;99.90
54680;DHT22;40578;53.178;5.846;2022-07-11T08:22:34;17.10;99.90
54680;DHT22;40578;53.178;5.846;2022-07-11T08:25:01;17.10;99.90
54680;DHT22;40578;53.178;5.846;2022-07-11T08:27:29;17.10;99.90
54680;DHT22;40578;53.178;5.846;2022-07-11T08:29:54;17.20;99.90
54680;DHT22;40578;53.178;5.846;2022-07-11T08:32:20;17.20;99.90
54680;DHT22;40578;53.178;5.846;2022-07-11T08:34:46;17.40;99.90
54680;DHT22;40578;53.178;5.846;2022-07-11T08:37:12;17.40;99.90
54680;DHT22;40578;53.178;5.846;2022-07-11T08:39:38;17.40;99.90
54680;DHT22;40578;53.178;5.846;2022-07-11T08:42:04;17.40;99.90
54680;DHT22;40578;53.178;5.846;2022-07-11T08:44:33;17.50;99.90
54680;DHT22;40578;53.178;5.846;2022-07-11T08:46:59;17.50;99.90
54680;DHT22;40578;53.178;5.846;2022-07-11T08:49:26;17.40;99.90
54680;DHT22;40578;53.178;5.846;2022-07-11T08:51:52;17.30;99.90
54680;DHT22;40578;53.178;5.846;2022-07-11T08:54:18;17.50;99.90
54680;DHT22;40578;53.178;5.846;2022-07-11T08:56:44;17.50;99.90
54680;DHT22;40578;53.178;5.846;2022-07-11T08:59:14;17.50;99.90
54680;DHT22;40578;53.178;5.846;2022-07-11T09:01:44;17.40;99.90
54680;DHT22;40578;53.178;5.846;2022-07-11T09:04:11;17.50;99.90
54680;DHT22;40578;53.178;5.846;2022-07-11T09:06:39;17.40;99.90
54680;DHT22;40578;53.178;5.846;2022-07-11T09:09:05;17.30;99.90
54680;DHT22;40578;53.178;5.846;2022-07-11T09:19:24;18.00;99.90
54680;DHT22;40578;53.178;5.846;2022-07-11T09:22:00;18.00;99.90
54680;DHT22;40578;53.178;5.846;2022-07-11T09:25:03;18.00;99.90
54680;DHT22;40578;53.178;5.846;2022-07-11T09:27:54;18.10;99.90
54680;DHT22;40578;53.178;5.846;2022-07-11T09:35:29;18.10;73.10
54680;DHT22;40578;53.178;5.846;2022-07-11T09:37:56;18.20;99.90
54680;DHT22;40578;53.178;5.846;2022-07-11T09:40:22;18.20;99.90
54680;DHT22;40578;53.178;5.846;2022-07-11T09:42:49;18.20;99.90
54680;DHT22;40578;53.178;5.846;2022-07-11T09:45:15;18.30;99.90
54680;DHT22;40578;53.178;5.846;2022-07-11T09:47:49;18.30;93.30
54680;DHT22;40578;53.178;5.846;2022-07-11T09:50:26;18.40;76.30
54680;DHT22;40578;53.178;5.846;2022-07-11T09:55:37;18.50;1.00
54680;DHT22;40578;53.178;5.846;2022-07-11T09:58:10;18.60;75.50
54680;DHT22;40578;53.178;5.846;2022-07-11T10:00:37;18.70;90.60
54680;DHT22;40578;53.178;5.846;2022-07-11T10:03:05;18.70;65.30
54680;DHT22;40578;53.178;5.846;2022-07-11T10:05:31;18.70;36.20
54680;DHT22;40578;53.178;5.846;2022-07-11T10:07:57;18.70;1.00
54680;DHT22;40578;53.178;5.846;2022-07-11T10:10:24;18.80;1.00
54680;DHT22;40578;53.178;5.846;2022-07-11T10:12:51;18.80;1.00
54680;DHT22;40578;53.178;5.846;2022-07-11T10:15:22;18.90;1.00
54680;DHT22;40578;53.178;5.846;2022-07-11T10:26:54;19.20;1.00
54680;DHT22;40578;53.178;5.846;2022-07-11T10:29:05;19.40;1.00
54680;DHT22;40578;53.178;5.846;2022-07-11T10:31:32;19.40;1.00
54680;DHT22;40578;53.178;5.846;2022-07-11T10:34:04;19.40;1.00
54680;DHT22;40578;53.178;5.846;2022-07-11T10:36:31;19.30;1.00
54680;DHT22;40578;53.178;5.846;2022-07-11T10:39:14;19.30;1.00
54680;DHT22;40578;53.178;5.846;2022-07-11T10:41:40;19.20;1.00
54680;DHT22;40578;53.178;5.846;2022-07-11T10:44:06;19.00;1.00
54680;DHT22;40578;53.178;5.846;2022-07-11T10:46:32;19.00;1.00
54680;DHT22;40578;53.178;5.846;2022-07-11T10:51:51;19.20;7.90
54680;DHT22;40578;53.178;5.846;2022-07-11T10:57:23;19.10;1.00
54680;DHT22;40578;53.178;5.846;2022-07-11T11:00:07;19.20;1.00
54680;DHT22;40578;53.178;5.846;2022-07-11T11:05:49;19.30;1.00
54680;DHT22;40578;53.178;5.846;2022-07-11T11:11:03;19.30;1.00
54680;DHT22;40578;53.178;5.846;2022-07-11T11:13:31;19.20;1.00
54680;DHT22;40578;53.178;5.846;2022-07-11T11:15:59;19.20;1.00
54680;DHT22;40578;53.178;5.846;2022-07-11T11:18:30;19.40;1.00
54680;DHT22;40578;53.178;5.846;2022-07-11T11:23:26;19.50;1.00
54680;DHT22;40578;53.178;5.846;2022-07-11T11:25:53;19.60;1.00
54680;DHT22;40578;53.178;5.846;2022-07-11T11:28:22;19.70;1.00
54680;DHT22;40578;53.178;5.846;2022-07-11T11:30:55;19.70;1.00
54680;DHT22;40578;53.178;5.846;2022-07-11T11:33:22;19.50;1.00
54680;DHT22;40578;53.178;5.846;2022-07-11T11:36:03;19.60;1.00
54680;DHT22;40578;53.178;5.846;2022-07-11T11:38:36;19.80;1.00
54680;DHT22;40578;53.178;5.846;2022-07-11T11:41:03;19.90;99.90
54680;DHT22;40578;53.178;5.846;2022-07-11T11:43:31;20.10;1.00
54680;DHT22;40578;53.178;5.846;2022-07-11T11:45:57;20.10;1.00
54680;DHT22;40578;53.178;5.846;2022-07-11T11:48:30;20.00;1.00
54680;DHT22;40578;53.178;5.846;2022-07-11T11:51:10;20.10;1.00
54680;DHT22;40578;53.178;5.846;2022-07-11T11:58:46;19.80;99.90
54680;DHT22;40578;53.178;5.846;2022-07-11T12:01:13;19.70;1.00
54680;DHT22;40578;53.178;5.846;2022-07-11T12:03:56;19.70;1.00
54680;DHT22;40578;53.178;5.846;2022-07-11T12:06:31;19.80;1.00
54680;DHT22;40578;53.178;5.846;2022-07-11T12:09:12;19.80;1.00
54680;DHT22;40578;53.178;5.846;2022-07-11T12:11:40;19.90;1.00
54680;DHT22;40578;53.178;5.846;2022-07-11T12:14:08;19.80;1.00
54680;DHT22;40578;53.178;5.846;2022-07-11T12:16:37;19.80;1.00
54680;DHT22;40578;53.178;5.846;2022-07-11T12:19:05;20.00;1.00
54680;DHT22;40578;53.178;5.846;2022-07-11T12:21:35;19.90;1.00
54680;DHT22;40578;53.178;5.846;2022-07-11T12:24:10;19.70;1.00
54680;DHT22;40578;53.178;5.846;2022-07-11T12:26:38;19.70;1.00
54680;DHT22;40578;53.178;5.846;2022-07-11T12:29:11;19.50;1.00
54680;DHT22;40578;53.178;5.846;2022-07-11T12:31:46;19.60;1.00
54680;DHT22;40578;53.178;5.846;2022-07-11T12:34:12;19.70;1.00
54680;DHT22;40578;53.178;5.846;2022-07-11T12:36:38;19.60;1.00
54680;DHT22;40578;53.178;5.846;2022-07-11T12:39:04;19.60;1.00
54680;DHT22;40578;53.178;5.846;2022-07-11T12:41:33;19.70;1.00
54680;DHT22;40578;53.178;5.846;2022-07-11T12:43:59;19.80;1.00
54680;DHT22;40578;53.178;5.846;2022-07-11T12:46:44;19.90;1.00
54680;DHT22;40578;53.178;5.846;2022-07-11T12:49:13;19.80;1.00
54680;DHT22;40578;53.178;5.846;2022-07-11T12:51:43;19.90;1.00
54680;DHT22;40578;53.178;5.846;2022-07-11T12:56:37;20.00;1.00
54680;DHT22;40578;53.178;5.846;2022-07-11T12:59:04;20.20;99.90
54680;DHT22;40578;53.178;5.846;2022-07-11T13:01:30;20.00;1.00
54680;DHT22;40578;53.178;5.846;2022-07-11T13:03:56;20.00;1.00
54680;DHT22;40578;53.178;5.846;2022-07-11T13:06:22;20.10;1.00
54680;DHT22;40578;53.178;5.846;2022-07-11T13:09:07;20.00;1.00
54680;DHT22;40578;53.178;5.846;2022-07-11T13:11:34;20.10;1.00
54680;DHT22;40578;53.178;5.846;2022-07-11T13:14:00;20.10;1.00
54680;DHT22;40578;53.178;5.846;2022-07-11T13:16:26;20.10;1.00
54680;DHT22;40578;53.178;5.846;2022-07-11T13:18:52;20.00;1.00
54680;DHT22;40578;53.178;5.846;2022-07-11T13:21:18;20.00;1.00
54680;DHT22;40578;53.178;5.846;2022-07-11T13:23:44;19.90;1.00
54680;DHT22;40578;53.178;5.846;2022-07-11T13:26:10;20.00;1.00
54680;DHT22;40578;53.178;5.846;2022-07-11T13:28:37;19.80;1.00
54680;DHT22;40578;53.178;5.846;2022-07-11T13:31:03;19.80;1.00
54680;DHT22;40578;53.178;5.846;2022-07-11T13:33:34;19.80;1.00
54680;DHT22;40578;53.178;5.846;2022-07-11T13:36:00;19.80;1.00
54680;DHT22;40578;53.178;5.846;2022-07-11T13:38:26;19.90;1.00
54680;DHT22;40578;53.178;5.846;2022-07-11T13:40:51;20.00;1.00
54680;DHT22;40578;53.178;5.846;2022-07-11T13:43:17;20.10;99.90
54680;DHT22;40578;53.178;5.846;2022-07-11T13:45:44;20.00;1.00
54680;DHT22;40578;53.178;5.846;2022-07-11T13:48:10;20.00;1.00
54680;DHT22;40578;53.178;5.846;2022-07-11T13:50:36;20.00;1.00
54680;DHT22;40578;53.178;5.846;2022-07-11T13:53:02;19.90;1.00
54680;DHT22;40578;53.178;5.846;2022-07-11T13:55:27;19.80;99.90
54680;DHT22;40578;53.178;5.846;2022-07-11T13:57:57;19.70;99.90
54680;DHT22;40578;53.178;5.846;2022-07-11T14:00:24;19.70;1.00
54680;DHT22;40578;53.178;5.846;2022-07-11T14:02:51;19.70;1.00
54680;DHT22;40578;53.178;5.846;2022-07-11T14:05:18;19.80;1.00
54680;DHT22;40578;53.178;5.846;2022-07-11T14:07:44;19.90;1.00
54680;DHT22;40578;53.178;5.846;2022-07-11T14:10:10;19.90;1.00
54680;DHT22;40578;53.178;5.846;2022-07-11T14:12:36;19.70;99.90
54680;DHT22;40578;53.178;5.846;2022-07-11T14:15:02;19.80;1.00
54680;DHT22;40578;53.178;5.846;2022-07-11T14:17:28;19.90;1.00
54680;DHT22;40578;53.178;5.846;2022-07-11T14:19:54;19.90;1.00
54680;DHT22;40578;53.178;5.846;2022-07-11T14:22:21;19.90;1.00
54680;DHT22;40578;53.178;5.846;2022-07-11T14:24:47;19.90;99.90
54680;DHT22;40578;53.178;5.846;2022-07-11T14:27:14;19.70;1.00
54680;DHT22;40578;53.178;5.846;2022-07-11T14:29:43;19.80;1.00
54680;DHT22;40578;53.178;5.846;2022-07-11T14:32:11;19.80;1.00
54680;DHT22;40578;53.178;5.846;2022-07-11T14:34:38;19.60;1.00
54680;DHT22;40578;53.178;5.846;2022-07-11T14:37:03;19.70;1.00
54680;DHT22;40578;53.178;5.846;2022-07-11T14:39:31;19.50;1.00
54680;DHT22;40578;53.178;5.846;2022-07-11T14:41:57;19.30;1.00
54680;DHT22;40578;53.178;5.846;2022-07-11T14:44:25;19.70;1.00
54680;DHT22;40578;53.178;5.846;2022-07-11T14:46:51;19.50;1.00
54680;DHT22;40578;53.178;5.846;2022-07-11T14:49:17;19.50;1.00
54680;DHT22;40578;53.178;5.846;2022-07-11T14:51:43;19.70;1.00
54680;DHT22;40578;53.178;5.846;2022-07-11T14:54:09;19.80;1.00
54680;DHT22;40578;53.178;5.846;2022-07-11T14:56:36;19.90;1.00
54680;DHT22;40578;53.178;5.846;2022-07-11T14:59:02;19.90;99.90
54680;DHT22;40578;53.178;5.846;2022-07-11T15:01:31;20.00;1.00
54680;DHT22;40578;53.178;5.846;2022-07-11T15:03:57;20.10;1.00
54680;DHT22;40578;53.178;5.846;2022-07-11T15:06:23;20.10;1.00
54680;DHT22;40578;53.178;5.846;2022-07-11T15:09:08;20.10;99.90
54680;DHT22;40578;53.178;5.846;2022-07-11T15:11:52;20.10;99.90
54680;DHT22;40578;53.178;5.846;2022-07-11T15:14:37;20.10;99.90
54680;DHT22;40578;53.178;5.846;2022-07-11T15:17:03;20.00;1.00
54680;DHT22;40578;53.178;5.846;2022-07-11T15:19:28;20.00;99.90
54680;DHT22;40578;53.178;5.846;2022-07-11T15:21:54;20.00;99.90
54680;DHT22;40578;53.178;5.846;2022-07-11T15:24:19;20.00;99.90
54680;DHT22;40578;53.178;5.846;2022-07-11T15:26:45;19.90;99.90
54680;DHT22;40578;53.178;5.846;2022-07-11T15:29:11;19.90;99.90
54680;DHT22;40578;53.178;5.846;2022-07-11T15:31:36;20.00;99.90
54680;DHT22;40578;53.178;5.846;2022-07-11T15:34:02;20.00;99.90
54680;DHT22;40578;53.178;5.846;2022-07-11T15:36:28;19.90;99.90
54680;DHT22;40578;53.178;5.846;2022-07-11T15:38:55;19.90;1.00
54680;DHT22;40578;53.178;5.846;2022-07-11T15:41:21;19.90;99.90
54680;DHT22;40578;53.178;5.846;2022-07-11T15:43:47;19.90;1.00
54680;DHT22;40578;53.178;5.846;2022-07-11T15:46:12;19.90;1.00
54680;DHT22;40578;53.178;5.846;2022-07-11T15:48:38;19.90;1.00
54680;DHT22;40578;53.178;5.846;2022-07-11T15:51:04;20.00;99.90
54680;DHT22;40578;53.178;5.846;2022-07-11T15:53:30;19.90;1.00
54680;DHT22;40578;53.178;5.846;2022-07-11T15:55:55;19.80;1.00
54680;DHT22;40578;53.178;5.846;2022-07-11T15:58:21;19.80;1.00
54680;DHT22;40578;53.178;5.846;2022-07-11T16:00:48;19.80;1.00
54680;DHT22;40578;53.178;5.846;2022-07-11T16:03:16;19.80;1.00
54680;DHT22;40578;53.178;5.846;2022-07-11T16:05:41;19.90;1.00
54680;DHT22;40578;53.178;5.846;2022-07-11T16:08:07;20.00;1.00
54680;DHT22;40578;53.178;5.846;2022-07-11T16:10:33;19.70;1.00
54680;DHT22;40578;53.178;5.846;2022-07-11T16:12:58;19.70;1.00
54680;DHT22;40578;53.178;5.846;2022-07-11T16:15:24;19.70;1.00
54680;DHT22;40578;53.178;5.846;2022-07-11T16:17:50;19.80;1.00
54680;DHT22;40578;53.178;5.846;2022-07-11T16:20:16;19.90;1.00
54680;DHT22;40578;53.178;5.846;2022-07-11T16:22:42;20.00;1.00
54680;DHT22;40578;53.178;5.846;2022-07-11T16:25:09;19.90;99.90
54680;DHT22;40578;53.178;5.846;2022-07-11T16:27:35;20.10;1.00
54680;DHT22;40578;53.178;5.846;2022-07-11T16:30:01;20.10;99.90
54680;DHT22;40578;53.178;5.846;2022-07-11T16:32:28;20.00;99.90
54680;DHT22;40578;53.178;5.846;2022-07-11T16:34:53;20.00;99.90
54680;DHT22;40578;53.178;5.846;2022-07-11T16:37:19;20.00;99.90